Austin, TX (78769)

12:00 PM CDT on September 05, 2015 (GMT -0500)
West Campus | | Change Station
CLOSE
Current Station
Personal Weather Station
Location: Austin, TX
Elevation: 594 ft
Nearby Weather Stations

Elev 594 ft 30.30 °N, 97.74 °W | Updated 7 minutes ago

Scattered Clouds
Scattered Clouds
86.4 °F
Feels Like 98 °F
N
2.2
Wind Variable Wind from East

Today
High -- | Low -- °F
--% Chance of Precip.
Yesterday
High -- | Low -- °F
Precip. -- in
7:09 AM 7:49 PM
Waning Gibbous, 47% visible
Pressure 29.98 in
Visibility 10.0 miles
Clouds Few 3300 ft
Scattered Clouds 4000 ft
Heat Index 98 °F
Dew Point 77 °F
Humidity 74%
Rainfall 0.02 in
Snow Depth Not available.
UV 7 out of 12
Pollen 8.10 out of 12
Air Quality Not available.
Flu Activity Not available.
METAR KATT 051651Z AUTO 16006KT 10SM FEW033 SCT040 33/23 A3003 RMK AO2 SLP151 T03330228
Pressure 29.98 in
Visibility 10.0 miles
Clouds Few 3300 ft
Scattered Clouds 4000 ft
Heat Index 98 °F
Dew Point 77 °F
Humidity 74%
Rainfall 0.02 in
Snow Depth Not available.
UV 7 out of 12
Pollen 8.10 out of 12
Air Quality Not available.
Flu Activity Not available.
METAR KATT 051651Z AUTO 16006KT 10SM FEW033 SCT040 33/23 A3003 RMK AO2 SLP151 T03330228
Nowcast | as of 11:53 am CDT on September 5, 2015

Through 1 PM...widely scattered showers and patchy sprinkles along and east of I-35 will move to the north at 10 to 15 mph. Rainfall amounts up to one half inch are possible.

×

10-Day Weather Forecast

×

Almanac

Astronomy

Sep. 05, 2015 Rise Set
Actual Time
Civil Twilight
Nautical Twilight
Astronomical Twilight
Moon
Length of Visible Light
Length of Day
Tomorrow will be .
, % of the Moon is Illuminated

Today's Extremes

State Highs State Lows

Community

WunderPhotos

Upload Photos

1,852,503 photos uploaded!

WunderBlogs® & News

Nearby

Air Quality

  Air Quality AQ Index Pollutant
Not available.

Snow Depth

Station Depth Elevation

Earthquake Activity

City Distance Mag. Time & Date
Minimum magnitude displayed is 2.5.

Coastal Water Temperatures

Place Temperature

Stations

Nearby Weather Stations

Station Location Temp. Windchill Dew Point Humidity Wind Precip. Elev Updated Type